createdAt,value
2022-12-18T00:00:59.741Z,-3.41
2022-12-18T00:04:24.648Z,-3.41
2022-12-18T00:07:47.656Z,-3.43
2022-12-18T00:11:11.036Z,-3.45
2022-12-18T00:14:32.801Z,-3.45
2022-12-18T00:17:54.498Z,-3.47
2022-12-18T00:21:16.490Z,-3.45
2022-12-18T00:24:39.580Z,-3.52
2022-12-18T00:28:01.111Z,-3.54
2022-12-18T00:31:24.740Z,-3.53
2022-12-18T00:34:48.526Z,-3.55
2022-12-18T00:38:10.708Z,-3.56
2022-12-18T00:41:51.906Z,-3.59
2022-12-18T00:45:13.491Z,-3.58
2022-12-18T00:48:35.126Z,-3.58
2022-12-18T00:51:59.778Z,-3.62
2022-12-18T00:55:21.528Z,-3.65
2022-12-18T00:58:44.735Z,-3.68
2022-12-18T01:02:06.548Z,-3.72
2022-12-18T01:05:28.312Z,-3.76
2022-12-18T01:08:50.079Z,-3.78
2022-12-18T01:12:11.449Z,-3.79
2022-12-18T01:15:34.727Z,-3.83
2022-12-18T01:18:57.212Z,-3.86
2022-12-18T01:22:18.824Z,-3.86
2022-12-18T01:25:40.869Z,-3.86
2022-12-18T01:29:04.979Z,-3.84
2022-12-18T01:32:27.588Z,-3.87
2022-12-18T01:35:49.267Z,-3.87
2022-12-18T01:39:14.167Z,-3.89
2022-12-18T01:42:37.453Z,-3.92
2022-12-18T01:46:01.526Z,-3.96
2022-12-18T01:49:24.816Z,-3.98
2022-12-18T01:52:49.651Z,-4.00
2022-12-18T01:56:15.631Z,-4.05
2022-12-18T01:59:38.928Z,-4.04
2022-12-18T02:03:01.878Z,-4.04
2022-12-18T02:06:34.636Z,-4.05
2022-12-18T02:10:03.335Z,-4.05
2022-12-18T02:13:32.257Z,-4.05
2022-12-18T02:17:00.349Z,-4.06
2022-12-18T02:20:26.826Z,-4.09
2022-12-18T02:23:58.612Z,-4.10
2022-12-18T02:27:22.713Z,-4.09
2022-12-18T02:30:47.550Z,-4.08
2022-12-18T02:34:11.371Z,-4.07
2022-12-18T02:37:36.377Z,-4.09
2022-12-18T02:41:02.377Z,-4.11
2022-12-18T02:44:25.624Z,-4.12
2022-12-18T02:47:51.682Z,-4.17
2022-12-18T02:51:19.585Z,-4.18
2022-12-18T02:54:58.201Z,-4.20
2022-12-18T02:58:22.993Z,-4.21
2022-12-18T03:01:57.226Z,-4.21
2022-12-18T03:05:23.009Z,-4.24
2022-12-18T03:08:48.756Z,-4.23
2022-12-18T03:12:26.568Z,-4.25
2022-12-18T03:15:55.034Z,-4.24
2022-12-18T03:19:21.616Z,-4.22
2022-12-18T03:22:50.148Z,-4.27
2022-12-18T03:26:17.445Z,-4.27
2022-12-18T03:29:44.756Z,-4.26
2022-12-18T03:33:12.973Z,-4.28
2022-12-18T03:36:40.706Z,-4.30
2022-12-18T03:40:02.612Z,-4.28
2022-12-18T03:43:38.324Z,-4.27
2022-12-18T03:47:07.568Z,-4.26
2022-12-18T03:50:39.812Z,-4.30
2022-12-18T03:54:05.959Z,-4.29
2022-12-18T03:57:35.076Z,-4.32
2022-12-18T04:01:03.368Z,-4.36
2022-12-18T04:04:27.094Z,-4.37
2022-12-18T04:07:51.768Z,-4.38
2022-12-18T04:11:14.464Z,-4.42
2022-12-18T04:14:36.680Z,-4.42
2022-12-18T04:17:59.720Z,-4.48
2022-12-18T04:21:27.595Z,-4.47
2022-12-18T04:24:49.410Z,-4.46
2022-12-18T04:28:21.611Z,-4.47
2022-12-18T04:31:43.762Z,-4.47
2022-12-18T04:35:11.420Z,-4.47
2022-12-18T04:38:34.512Z,-4.48
2022-12-18T04:42:02.693Z,-4.49
2022-12-18T04:45:25.523Z,-4.49
2022-12-18T04:48:48.951Z,-4.49
2022-12-18T04:52:10.491Z,-4.49
2022-12-18T04:55:32.305Z,-4.49
2022-12-18T04:58:54.133Z,-4.51
2022-12-18T05:02:16.869Z,-4.49
2022-12-18T05:05:38.512Z,-4.47
2022-12-18T05:09:00.779Z,-4.45
2022-12-18T05:12:22.305Z,-4.51
2022-12-18T05:15:44.059Z,-4.51
2022-12-18T05:19:07.147Z,-4.53
2022-12-18T05:22:28.964Z,-4.55
2022-12-18T05:25:53.418Z,-4.56
2022-12-18T05:29:15.332Z,-4.56
2022-12-18T05:32:36.629Z,-4.58
2022-12-18T05:36:05.299Z,-4.61
2022-12-18T05:39:26.686Z,-4.62
2022-12-18T05:42:48.564Z,-4.64
2022-12-18T05:46:13.976Z,-4.65
2022-12-18T05:49:35.799Z,-4.65
2022-12-18T05:52:58.964Z,-4.63
2022-12-18T05:56:22.170Z,-4.68
2022-12-18T05:59:43.793Z,-4.68
2022-12-18T06:03:06.060Z,-4.71
2022-12-18T06:06:29.526Z,-4.73
2022-12-18T06:09:52.474Z,-4.73
2022-12-18T06:13:13.765Z,-4.74
2022-12-18T06:16:35.681Z,-4.74
2022-12-18T06:19:57.573Z,-4.77
2022-12-18T06:23:19.635Z,-4.81
2022-12-18T06:26:42.600Z,-4.85
2022-12-18T06:30:04.589Z,-4.89
2022-12-18T06:33:28.973Z,-4.91
2022-12-18T06:36:50.357Z,-4.93
2022-12-18T06:40:12.101Z,-4.95
2022-12-18T06:43:35.366Z,-4.94
2022-12-18T06:46:57.257Z,-4.91
2022-12-18T06:50:18.880Z,-4.90
2022-12-18T06:53:40.820Z,-4.91
2022-12-18T06:57:02.765Z,-4.91
2022-12-18T07:00:25.952Z,-4.94
2022-12-18T07:03:47.914Z,-4.96
2022-12-18T07:07:09.703Z,-4.97
2022-12-18T07:10:31.565Z,-4.98
2022-12-18T07:13:55.404Z,-5.00
2022-12-18T07:17:18.643Z,-4.99
2022-12-18T07:20:40.621Z,-4.97
2022-12-18T07:24:02.279Z,-4.97
2022-12-18T07:27:23.765Z,-4.99
2022-12-18T07:30:45.568Z,-4.98
2022-12-18T07:34:12.334Z,-4.99
2022-12-18T07:37:33.977Z,-4.97
2022-12-18T07:40:55.877Z,-4.98
2022-12-18T07:44:17.040Z,-4.97
2022-12-18T07:47:39.031Z,-4.98
2022-12-18T07:51:01.854Z,-4.96
2022-12-18T07:54:23.374Z,-4.96
2022-12-18T07:57:55.376Z,-4.95
2022-12-18T08:01:21.350Z,-4.96
2022-12-18T08:04:43.388Z,-4.94
2022-12-18T08:08:07.200Z,-4.92
2022-12-18T08:11:30.646Z,-4.92
2022-12-18T08:14:52.240Z,-4.90
2022-12-18T08:18:14.641Z,-4.87
2022-12-18T08:21:36.318Z,-4.85
2022-12-18T08:24:59.531Z,-4.83
2022-12-18T08:28:21.484Z,-4.83
2022-12-18T08:31:43.334Z,-4.83
2022-12-18T08:35:05.523Z,-4.79
2022-12-18T08:38:27.413Z,-4.76
2022-12-18T08:42:09.737Z,-4.77
2022-12-18T08:45:31.654Z,-4.76
2022-12-18T08:48:54.439Z,-4.77
2022-12-18T08:52:16.220Z,-4.75
2022-12-18T08:55:37.975Z,-4.71
2022-12-18T08:59:01.393Z,-4.71
2022-12-18T09:02:23.000Z,-4.69
2022-12-18T09:05:45.242Z,-4.69
2022-12-18T09:09:07.077Z,-4.67
2022-12-18T09:12:28.812Z,-4.65
2022-12-18T09:15:53.385Z,-4.65
2022-12-18T09:19:15.356Z,-4.62
2022-12-18T09:22:37.058Z,-4.60
2022-12-18T09:26:01.243Z,-4.61
2022-12-18T09:29:22.988Z,-4.57
2022-12-18T09:32:45.814Z,-4.55
2022-12-18T09:36:09.693Z,-4.54
2022-12-18T09:39:31.468Z,-4.48
2022-12-18T09:42:57.673Z,-4.41
2022-12-18T09:46:26.380Z,-4.39
2022-12-18T09:49:53.399Z,-4.36
2022-12-18T09:53:19.559Z,-4.31
2022-12-18T09:56:43.503Z,-4.26
2022-12-18T10:00:13.688Z,-4.23
2022-12-18T10:03:36.366Z,-4.17
2022-12-18T10:07:09.074Z,-4.10
2022-12-18T10:10:40.749Z,-4.09
2022-12-18T10:14:11.910Z,-4.04
2022-12-18T10:17:42.128Z,-3.98
2022-12-18T10:21:10.434Z,-3.92
2022-12-18T10:24:40.211Z,-3.86
2022-12-18T10:28:12.292Z,-3.85
2022-12-18T10:31:33.946Z,-3.83
2022-12-18T10:35:00.729Z,-3.78
2022-12-18T10:38:24.926Z,-3.73
2022-12-18T10:41:48.175Z,-3.69
2022-12-18T10:45:12.740Z,-3.64
2022-12-18T10:48:38.076Z,-3.56
2022-12-18T10:52:16.999Z,-3.54
2022-12-18T10:55:41.445Z,-3.50
2022-12-18T10:59:06.417Z,-3.45
2022-12-18T11:02:30.863Z,-3.42
2022-12-18T11:06:05.260Z,-3.38
2022-12-18T11:09:28.464Z,-3.34
2022-12-18T11:12:50.623Z,-3.30
2022-12-18T11:16:21.760Z,-3.25
2022-12-18T11:19:43.675Z,-3.21
2022-12-18T11:23:08.313Z,-3.17
2022-12-18T11:26:36.891Z,-3.12
2022-12-18T11:30:11.153Z,-3.10
2022-12-18T11:33:34.794Z,-3.07
2022-12-18T11:36:56.847Z,-3.05
2022-12-18T11:40:22.114Z,-3.00
2022-12-18T11:43:50.400Z,-2.98
2022-12-18T11:47:20.825Z,-2.95
2022-12-18T11:50:51.129Z,-2.93
2022-12-18T11:54:15.400Z,-2.89
2022-12-18T11:57:44.349Z,-2.89
2022-12-18T12:01:16.048Z,-2.89
2022-12-18T12:05:03.299Z,-2.85
2022-12-18T12:08:38.643Z,-2.85
2022-12-18T12:12:18.789Z,-2.85
2022-12-18T12:15:48.664Z,-2.85
2022-12-18T12:19:26.191Z,-2.83
2022-12-18T12:22:56.216Z,-2.81
2022-12-18T12:26:28.338Z,-2.78
2022-12-18T12:30:03.302Z,-2.78
2022-12-18T12:33:36.948Z,-2.77
2022-12-18T12:41:03.146Z,-2.73
2022-12-18T12:44:32.502Z,-2.74
2022-12-18T12:47:55.467Z,-2.73
2022-12-18T12:51:21.641Z,-2.72
2022-12-18T12:54:43.894Z,-2.68
2022-12-18T12:58:13.826Z,-2.66
2022-12-18T13:01:44.486Z,-2.64
2022-12-18T13:05:17.550Z,-2.61
2022-12-18T13:08:55.741Z,-2.58
2022-12-18T13:12:35.866Z,-2.59
2022-12-18T13:16:08.357Z,-2.57
2022-12-18T13:19:31.621Z,-2.55
2022-12-18T13:22:53.129Z,-2.55
2022-12-18T13:26:32.976Z,-2.55
2022-12-18T13:29:54.625Z,-2.56
2022-12-18T13:37:54.400Z,-2.60
2022-12-18T13:41:29.010Z,-2.59
2022-12-18T13:44:51.161Z,-2.60
2022-12-18T13:48:22.972Z,-2.61
2022-12-18T13:51:47.374Z,-2.61
2022-12-18T13:55:20.600Z,-2.62
2022-12-18T13:58:43.506Z,-2.59
2022-12-18T14:02:15.767Z,-2.63
2022-12-18T14:05:40.259Z,-2.61
2022-12-18T14:09:05.334Z,-2.63
2022-12-18T14:12:51.599Z,-2.63
2022-12-18T14:16:17.457Z,-2.68
2022-12-18T14:19:42.953Z,-2.66
2022-12-18T14:23:04.841Z,-2.70
2022-12-18T14:26:30.251Z,-2.69
2022-12-18T14:29:54.017Z,-2.71
2022-12-18T14:33:17.065Z,-2.74
2022-12-18T14:36:40.896Z,-2.76
2022-12-18T14:40:10.947Z,-2.78
2022-12-18T14:43:35.442Z,-2.81
2022-12-18T14:46:58.786Z,-2.82
2022-12-18T14:50:20.480Z,-2.82
2022-12-18T14:53:49.131Z,-2.84
2022-12-18T14:57:23.748Z,-2.85
2022-12-18T15:00:45.678Z,-2.83
2022-12-18T15:04:28.409Z,-2.88
2022-12-18T15:07:51.552Z,-2.87
2022-12-18T15:11:45.516Z,-2.87
2022-12-18T15:15:28.159Z,-2.88
2022-12-18T15:18:49.933Z,-2.87
2022-12-18T15:22:28.325Z,-2.89
2022-12-18T15:25:56.351Z,-2.89
2022-12-18T15:29:21.428Z,-2.91
2022-12-18T15:32:46.960Z,-2.92
2022-12-18T15:36:12.621Z,-2.91
2022-12-18T15:39:36.778Z,-2.90
2022-12-18T15:43:15.786Z,-2.92
2022-12-18T15:46:37.243Z,-2.93
2022-12-18T15:49:59.067Z,-2.90
2022-12-18T15:53:21.305Z,-2.91
2022-12-18T15:57:01.898Z,-2.89
2022-12-18T16:00:23.450Z,-2.91
2022-12-18T16:03:45.102Z,-2.90
2022-12-18T16:07:16.167Z,-2.89
2022-12-18T16:10:43.268Z,-2.94
2022-12-18T16:14:06.677Z,-2.95
2022-12-18T16:17:29.910Z,-2.93
2022-12-18T16:20:51.797Z,-2.94
2022-12-18T16:24:17.620Z,-2.93
2022-12-18T16:27:39.253Z,-2.92
2022-12-18T16:31:02.226Z,-2.90
2022-12-18T16:34:28.847Z,-2.91
2022-12-18T16:37:50.690Z,-2.90
2022-12-18T16:41:36.296Z,-2.92
2022-12-18T16:44:58.210Z,-2.92
2022-12-18T16:48:20.829Z,-2.93
2022-12-18T16:51:42.341Z,-2.92
2022-12-18T16:55:04.631Z,-2.91
2022-12-18T16:58:26.228Z,-2.92
2022-12-18T17:01:48.277Z,-2.91
2022-12-18T17:05:11.707Z,-2.90
2022-12-18T17:08:33.648Z,-2.92
2022-12-18T17:11:55.372Z,-2.91
2022-12-18T17:15:16.829Z,-2.94
2022-12-18T17:18:40.029Z,-2.93
2022-12-18T17:22:02.738Z,-2.94
2022-12-18T17:25:24.083Z,-2.95
2022-12-18T17:28:47.167Z,-2.94
2022-12-18T17:32:08.837Z,-2.94
2022-12-18T17:35:31.526Z,-2.93
2022-12-18T17:38:55.455Z,-2.94
2022-12-18T17:42:17.032Z,-2.94
2022-12-18T17:45:39.635Z,-2.92
2022-12-18T17:49:02.980Z,-2.92
2022-12-18T17:52:24.588Z,-2.92
2022-12-18T17:55:56.546Z,-2.90
2022-12-18T17:59:17.993Z,-2.88
2022-12-18T18:02:40.631Z,-2.87
2022-12-18T18:06:03.747Z,-2.85
2022-12-18T18:09:25.131Z,-2.86
2022-12-18T18:13:14.127Z,-2.86
2022-12-18T18:16:39.181Z,-2.86
2022-12-18T18:20:00.699Z,-2.86
2022-12-18T18:23:22.573Z,-2.85
2022-12-18T18:26:46.372Z,-2.86
2022-12-18T18:30:11.474Z,-2.85
2022-12-18T18:33:32.904Z,-2.86
2022-12-18T18:36:54.480Z,-2.91
2022-12-18T18:40:16.448Z,-2.92
2022-12-18T18:43:38.269Z,-2.94
2022-12-18T18:47:02.265Z,-2.97
2022-12-18T18:50:27.138Z,-2.98
2022-12-18T18:53:50.200Z,-3.01
2022-12-18T18:57:20.477Z,-3.02
2022-12-18T19:00:42.447Z,-3.05
2022-12-18T19:04:06.638Z,-3.09
2022-12-18T19:07:30.420Z,-3.11
2022-12-18T19:10:57.671Z,-3.13
2022-12-18T19:14:20.302Z,-3.14
2022-12-18T19:17:41.878Z,-3.16
2022-12-18T19:21:07.802Z,-3.20
2022-12-18T19:24:29.786Z,-3.21
2022-12-18T19:27:51.050Z,-3.23
2022-12-18T19:31:14.774Z,-3.26
2022-12-18T19:34:37.800Z,-3.27
2022-12-18T19:38:00.852Z,-3.29
2022-12-18T19:41:23.161Z,-3.29
2022-12-18T19:44:46.573Z,-3.28
2022-12-18T19:48:09.418Z,-3.27
2022-12-18T19:51:32.625Z,-3.29
2022-12-18T19:54:55.665Z,-3.31
2022-12-18T19:58:17.451Z,-3.35
2022-12-18T20:01:41.021Z,-3.40
2022-12-18T20:05:03.555Z,-3.42
2022-12-18T20:08:25.144Z,-3.46
2022-12-18T20:11:48.041Z,-3.50
2022-12-18T20:15:11.255Z,-3.55
2022-12-18T20:18:33.065Z,-3.57
2022-12-18T20:21:55.666Z,-3.60
2022-12-18T20:25:20.291Z,-3.62
2022-12-18T20:28:43.432Z,-3.64
2022-12-18T20:32:05.404Z,-3.66
2022-12-18T20:35:28.229Z,-3.66
2022-12-18T20:38:50.892Z,-3.66
2022-12-18T20:42:12.620Z,-3.68
2022-12-18T20:45:35.499Z,-3.70
2022-12-18T20:48:57.996Z,-3.70
2022-12-18T20:52:19.637Z,-3.69
2022-12-18T20:55:44.714Z,-3.69
2022-12-18T20:59:07.279Z,-3.70
2022-12-18T21:02:30.441Z,-3.72
2022-12-18T21:05:52.452Z,-3.70
2022-12-18T21:09:13.815Z,-3.74
2022-12-18T21:12:48.244Z,-3.81
2022-12-18T21:16:18.943Z,-3.82
2022-12-18T21:19:42.553Z,-3.83
2022-12-18T21:23:16.524Z,-3.84
2022-12-18T21:26:45.458Z,-3.86
2022-12-18T21:30:08.913Z,-3.86
2022-12-18T21:33:30.610Z,-3.88
2022-12-18T21:36:54.365Z,-3.90
2022-12-18T21:40:16.066Z,-3.91
2022-12-18T21:43:56.146Z,-3.93
2022-12-18T21:47:23.013Z,-3.94
2022-12-18T21:50:44.534Z,-3.93
2022-12-18T21:54:07.479Z,-3.93
2022-12-18T21:57:29.477Z,-3.94
2022-12-18T22:00:52.017Z,-3.93
2022-12-18T22:04:14.085Z,-3.97
2022-12-18T22:07:35.397Z,-3.94
2022-12-18T22:10:58.627Z,-3.95
2022-12-18T22:14:21.519Z,-3.96
2022-12-18T22:17:43.187Z,-3.94
2022-12-18T22:21:06.469Z,-3.96
2022-12-18T22:24:29.798Z,-3.93
2022-12-18T22:28:06.636Z,-3.93
2022-12-18T22:31:28.214Z,-3.90
2022-12-18T22:34:49.799Z,-3.88
2022-12-18T22:38:11.861Z,-3.86
2022-12-18T22:41:33.403Z,-3.84
2022-12-18T22:44:56.475Z,-3.84
2022-12-18T22:48:18.156Z,-3.81
2022-12-18T22:51:40.923Z,-3.81
2022-12-18T22:55:02.208Z,-3.82
2022-12-18T22:58:24.486Z,-3.82
2022-12-18T23:01:48.099Z,-3.84
2022-12-18T23:05:10.805Z,-3.83
2022-12-18T23:08:32.067Z,-3.85
2022-12-18T23:11:53.195Z,-3.83
2022-12-18T23:15:14.576Z,-3.82
2022-12-18T23:18:39.781Z,-3.83
2022-12-18T23:22:02.892Z,-3.82
2022-12-18T23:25:25.910Z,-3.83
2022-12-18T23:28:47.918Z,-3.81
2022-12-18T23:32:09.763Z,-3.82
2022-12-18T23:35:32.692Z,-3.85
2022-12-18T23:38:55.845Z,-3.85
2022-12-18T23:42:17.553Z,-3.86
2022-12-18T23:45:39.837Z,-3.87
2022-12-18T23:49:03.430Z,-3.87
2022-12-18T23:52:28.886Z,-3.88
2022-12-18T23:55:50.309Z,-3.89
2022-12-18T23:59:14.104Z,-3.91
